createdAt,value
2019-05-18T00:00:58.496Z,57.80
2019-05-18T00:03:30.882Z,57.70
2019-05-18T00:06:03.302Z,57.70
2019-05-18T00:08:35.579Z,57.80
2019-05-18T00:11:08.222Z,57.80
2019-05-18T00:13:40.495Z,57.80
2019-05-18T00:16:12.886Z,57.90
2019-05-18T00:18:45.260Z,57.90
2019-05-18T00:21:18.042Z,58.00
2019-05-18T00:23:50.477Z,58.00
2019-05-18T00:26:22.929Z,58.00
2019-05-18T00:28:55.321Z,58.10
2019-05-18T00:31:27.685Z,58.20
2019-05-18T00:33:59.962Z,58.20
2019-05-18T00:36:32.277Z,58.30
2019-05-18T00:39:05.449Z,58.50
2019-05-18T00:41:37.749Z,58.50
2019-05-18T00:44:09.993Z,58.60
2019-05-18T00:46:42.516Z,58.60
2019-05-18T00:49:15.042Z,58.70
2019-05-18T00:51:47.361Z,58.70
2019-05-18T00:54:23.268Z,58.70
2019-05-18T00:56:57.330Z,58.80
2019-05-18T00:59:29.669Z,58.80
2019-05-18T01:02:02.039Z,59.00
2019-05-18T01:04:34.597Z,58.90
2019-05-18T01:07:06.972Z,59.00
2019-05-18T01:09:39.328Z,58.90
2019-05-18T01:12:11.938Z,58.90
2019-05-18T01:14:44.308Z,58.90
2019-05-18T01:17:16.745Z,59.10
2019-05-18T01:19:49.086Z,59.10
2019-05-18T01:22:21.648Z,59.20
2019-05-18T01:24:54.108Z,59.30
2019-05-18T01:27:26.543Z,59.10
2019-05-18T01:29:58.921Z,59.30
2019-05-18T01:32:31.407Z,59.30
2019-05-18T01:35:04.450Z,59.30
2019-05-18T01:37:36.813Z,59.20
2019-05-18T01:40:10.268Z,59.30
2019-05-18T01:42:42.517Z,59.30
2019-05-18T01:45:17.220Z,59.30
2019-05-18T01:47:49.155Z,59.40
2019-05-18T01:50:21.549Z,59.40
2019-05-18T01:52:54.422Z,59.60
2019-05-18T01:55:26.670Z,59.60
2019-05-18T01:57:59.011Z,59.70
2019-05-18T02:00:31.374Z,59.80
2019-05-18T02:03:03.724Z,60.00
2019-05-18T02:05:36.115Z,60.00
2019-05-18T02:08:08.376Z,60.10
2019-05-18T02:13:08.770Z,60.00
2019-05-18T02:15:41.170Z,60.00
2019-05-18T02:18:27.997Z,60.00
2019-05-18T02:20:48.157Z,60.20
2019-05-18T02:23:20.664Z,60.90
2019-05-18T02:25:53.275Z,59.90
2019-05-18T02:28:27.231Z,59.80
2019-05-18T02:30:59.546Z,59.70
2019-05-18T02:33:32.039Z,59.60
2019-05-18T02:36:04.581Z,59.70
2019-05-18T02:38:37.157Z,59.60
2019-05-18T02:41:09.448Z,59.70
2019-05-18T02:43:41.865Z,59.70
2019-05-18T02:46:14.203Z,59.80
2019-05-18T02:48:50.129Z,59.80
2019-05-18T02:51:20.919Z,59.90
2019-05-18T02:53:53.318Z,59.90
2019-05-18T02:56:26.008Z,59.90
2019-05-18T02:58:58.661Z,60.00
2019-05-18T03:01:31.040Z,60.00
2019-05-18T03:04:03.567Z,59.90
2019-05-18T03:06:35.878Z,60.60
2019-05-18T03:09:08.558Z,59.80
2019-05-18T03:11:41.130Z,59.80
2019-05-18T03:14:13.792Z,59.80
2019-05-18T03:16:46.629Z,59.90
2019-05-18T03:19:19.477Z,59.90
2019-05-18T03:21:51.898Z,60.10
2019-05-18T03:24:24.353Z,60.30
2019-05-18T03:26:56.502Z,60.30
2019-05-18T03:29:28.783Z,60.30
2019-05-18T03:32:01.283Z,60.30
2019-05-18T03:34:34.155Z,60.30
2019-05-18T03:37:06.505Z,60.40
2019-05-18T03:39:39.771Z,60.50
2019-05-18T03:42:12.580Z,60.50
2019-05-18T03:44:45.955Z,60.70
2019-05-18T03:47:18.781Z,60.80
2019-05-18T03:49:52.187Z,60.90
2019-05-18T03:52:25.145Z,61.00
2019-05-18T03:54:57.979Z,61.00
2019-05-18T03:57:30.338Z,60.90
2019-05-18T04:00:02.773Z,60.90
2019-05-18T04:02:35.545Z,60.90
2019-05-18T04:05:09.134Z,61.00
2019-05-18T04:07:41.516Z,61.10
2019-05-18T04:10:14.157Z,61.20
2019-05-18T04:12:46.577Z,61.40
2019-05-18T04:15:19.401Z,61.40
2019-05-18T04:17:51.905Z,61.40
2019-05-18T04:20:24.340Z,61.50
2019-05-18T04:22:56.664Z,61.40
2019-05-18T04:25:29.409Z,61.50
2019-05-18T04:28:02.323Z,61.60
2019-05-18T04:30:35.825Z,61.80
2019-05-18T04:33:08.370Z,62.10
2019-05-18T04:35:40.682Z,62.20
2019-05-18T04:38:13.113Z,62.40
2019-05-18T04:40:45.728Z,62.40
2019-05-18T04:43:18.183Z,62.40
2019-05-18T04:45:50.625Z,62.40
2019-05-18T04:48:23.054Z,62.50
2019-05-18T04:50:55.689Z,62.50
2019-05-18T04:53:27.944Z,62.60
2019-05-18T04:56:00.754Z,62.70
2019-05-18T04:58:34.183Z,62.60
2019-05-18T05:01:06.534Z,62.90
2019-05-18T05:03:39.126Z,62.40
2019-05-18T05:06:11.818Z,62.60
2019-05-18T05:08:44.150Z,62.50
2019-05-18T05:11:16.908Z,62.40
2019-05-18T05:13:49.093Z,62.50
2019-05-18T05:16:21.813Z,62.30
2019-05-18T05:18:54.517Z,62.10
2019-05-18T05:21:26.848Z,62.00
2019-05-18T05:23:59.339Z,61.80
2019-05-18T05:26:31.706Z,61.90
2019-05-18T05:29:04.682Z,62.10
2019-05-18T05:31:37.885Z,61.80
2019-05-18T05:34:10.268Z,61.50
2019-05-18T05:36:42.814Z,61.30
2019-05-18T05:39:15.504Z,61.30
2019-05-18T05:41:47.986Z,61.30
2019-05-18T05:44:20.366Z,61.10
2019-05-18T05:46:53.132Z,61.30
2019-05-18T05:49:26.194Z,61.40
2019-05-18T05:51:59.041Z,61.40
2019-05-18T05:54:31.342Z,61.50
2019-05-18T05:57:04.177Z,61.50
2019-05-18T05:59:36.766Z,61.40
2019-05-18T06:02:09.105Z,61.30
2019-05-18T06:04:41.321Z,61.30
2019-05-18T06:07:13.777Z,61.30
2019-05-18T06:09:46.261Z,61.20
2019-05-18T06:12:18.572Z,61.10
2019-05-18T06:14:50.980Z,60.90
2019-05-18T06:17:23.777Z,60.80
2019-05-18T06:19:56.930Z,60.70
2019-05-18T06:22:29.563Z,60.70
2019-05-18T06:25:02.422Z,60.50
2019-05-18T06:27:35.562Z,60.50
2019-05-18T06:30:08.708Z,60.40
2019-05-18T06:32:41.282Z,60.30
2019-05-18T06:35:14.121Z,60.20
2019-05-18T06:37:47.202Z,60.30
2019-05-18T06:40:19.836Z,59.90
2019-05-18T06:42:52.433Z,60.00
2019-05-18T06:45:25.121Z,60.00
2019-05-18T06:47:58.134Z,59.90
2019-05-18T06:50:31.156Z,59.90
2019-05-18T06:53:03.671Z,59.50
2019-05-18T06:55:36.044Z,59.50
2019-05-18T06:58:09.827Z,59.50
2019-05-18T07:00:42.363Z,59.40
2019-05-18T07:03:14.694Z,59.30
2019-05-18T07:05:47.686Z,59.40
2019-05-18T07:08:20.368Z,59.20
2019-05-18T07:10:54.530Z,58.90
2019-05-18T07:13:27.990Z,58.70
2019-05-18T07:16:00.283Z,58.70
2019-05-18T07:18:32.937Z,58.60
2019-05-18T07:21:06.118Z,58.50
2019-05-18T07:23:39.451Z,58.40
2019-05-18T07:26:12.031Z,58.10
2019-05-18T07:28:44.676Z,58.20
2019-05-18T07:31:17.290Z,57.90
2019-05-18T07:33:50.781Z,57.70
2019-05-18T07:36:23.770Z,57.20
2019-05-18T07:38:56.357Z,57.40
2019-05-18T07:41:29.961Z,57.20
2019-05-18T07:44:02.834Z,56.90
2019-05-18T07:46:35.525Z,56.70
2019-05-18T07:49:08.575Z,56.40
2019-05-18T07:51:41.485Z,56.20
2019-05-18T07:54:14.175Z,55.90
2019-05-18T07:56:46.837Z,55.50
2019-05-18T07:59:20.063Z,55.40
2019-05-18T08:01:53.759Z,55.50
2019-05-18T08:04:26.095Z,55.60
2019-05-18T08:06:58.830Z,55.40
2019-05-18T08:09:31.452Z,55.10
2019-05-18T08:12:03.890Z,54.70
2019-05-18T08:14:36.330Z,54.90
2019-05-18T08:17:09.255Z,54.70
2019-05-18T08:19:41.910Z,55.20
2019-05-18T08:22:14.437Z,54.50
2019-05-18T08:24:46.960Z,54.30
2019-05-18T08:27:19.440Z,54.10
2019-05-18T08:29:51.993Z,53.90
2019-05-18T08:32:24.411Z,53.70
2019-05-18T08:34:57.665Z,53.40
2019-05-18T08:37:29.992Z,54.10
2019-05-18T08:40:03.534Z,53.50
2019-05-18T08:42:36.450Z,53.80
2019-05-18T08:45:09.901Z,53.90
2019-05-18T08:47:42.694Z,53.60
2019-05-18T08:50:15.389Z,53.40
2019-05-18T08:52:47.612Z,53.30
2019-05-18T08:55:20.354Z,53.10
2019-05-18T08:57:53.448Z,53.10
2019-05-18T09:00:26.297Z,53.10
2019-05-18T09:02:58.731Z,52.60
2019-05-18T09:05:31.057Z,52.80
2019-05-18T09:08:03.810Z,52.80
2019-05-18T09:10:36.144Z,52.80
2019-05-18T09:13:08.540Z,53.40
2019-05-18T09:15:41.149Z,52.30
2019-05-18T09:18:14.022Z,52.10
2019-05-18T09:20:48.407Z,52.70
2019-05-18T09:23:21.341Z,51.90
2019-05-18T09:25:54.266Z,52.20
2019-05-18T09:28:28.644Z,52.00
2019-05-18T09:31:01.221Z,51.70
2019-05-18T09:33:34.725Z,51.30
2019-05-18T09:36:07.290Z,51.60
2019-05-18T09:38:39.753Z,51.00
2019-05-18T09:41:12.161Z,51.50
2019-05-18T09:43:44.673Z,51.70
2019-05-18T09:46:16.987Z,51.40
2019-05-18T09:48:49.394Z,51.70
2019-05-18T09:51:21.896Z,50.70
2019-05-18T09:53:54.454Z,51.10
2019-05-18T09:56:28.854Z,50.40
2019-05-18T09:59:01.359Z,51.20
2019-05-18T10:01:34.631Z,50.80
2019-05-18T10:04:07.509Z,51.20
2019-05-18T10:06:40.952Z,51.20
2019-05-18T10:09:13.879Z,51.00
2019-05-18T10:11:46.574Z,49.10
2019-05-18T10:14:18.929Z,49.50
2019-05-18T10:17:00.437Z,49.30
2019-05-18T10:19:27.666Z,49.60
2019-05-18T10:22:00.421Z,49.20
2019-05-18T10:24:33.050Z,49.50
2019-05-18T10:27:07.746Z,49.20
2019-05-18T10:29:41.166Z,48.50
2019-05-18T10:32:15.802Z,48.90
2019-05-18T10:34:49.523Z,48.90
2019-05-18T10:37:22.861Z,47.60
2019-05-18T10:39:55.403Z,46.60
2019-05-18T10:42:28.258Z,47.80
2019-05-18T10:45:01.149Z,48.80
2019-05-18T10:47:33.945Z,49.30
2019-05-18T10:50:07.236Z,48.40
2019-05-18T10:52:40.678Z,48.50
2019-05-18T10:55:13.018Z,48.40
2019-05-18T10:57:45.750Z,48.70
2019-05-18T11:00:19.582Z,48.00
2019-05-18T11:02:55.414Z,48.50
2019-05-18T11:05:28.452Z,48.30
2019-05-18T11:08:01.361Z,48.00
2019-05-18T11:10:33.807Z,47.60
2019-05-18T11:13:06.357Z,47.00
2019-05-18T11:15:38.930Z,47.20
2019-05-18T11:18:11.984Z,47.10
2019-05-18T11:20:45.193Z,46.90
2019-05-18T11:23:18.320Z,46.50
2019-05-18T11:25:51.259Z,46.80
2019-05-18T11:28:25.987Z,46.50
2019-05-18T11:30:58.762Z,46.40
2019-05-18T11:33:32.554Z,46.50
2019-05-18T11:36:06.300Z,46.60
2019-05-18T11:38:40.256Z,46.80
2019-05-18T11:41:12.581Z,46.70
2019-05-18T11:43:45.948Z,46.60
2019-05-18T11:46:19.237Z,45.90
2019-05-18T11:48:53.516Z,46.30
2019-05-18T11:51:25.930Z,45.20
2019-05-18T11:53:58.763Z,45.00
2019-05-18T11:56:32.535Z,45.00
2019-05-18T11:59:05.329Z,44.00
2019-05-18T12:01:38.531Z,44.30
2019-05-18T12:04:11.048Z,44.20
2019-05-18T12:06:43.532Z,43.20
2019-05-18T12:09:16.635Z,42.70
2019-05-18T12:11:49.631Z,43.80
2019-05-18T12:14:22.216Z,43.80
2019-05-18T12:16:54.626Z,44.50
2019-05-18T12:19:27.213Z,44.00
2019-05-18T12:21:59.858Z,43.50
2019-05-18T12:24:33.669Z,43.20
2019-05-18T12:27:06.395Z,43.00
2019-05-18T12:29:39.300Z,43.50
2019-05-18T12:32:12.879Z,42.50
2019-05-18T12:34:45.607Z,42.30
2019-05-18T12:37:22.751Z,42.60
2019-05-18T12:39:55.166Z,41.20
2019-05-18T12:42:28.661Z,40.00
2019-05-18T12:45:02.169Z,39.90
2019-05-18T12:47:35.174Z,40.00
2019-05-18T12:50:08.582Z,40.10
2019-05-18T12:52:40.927Z,40.00
2019-05-18T12:55:13.769Z,40.30
2019-05-18T12:57:46.184Z,40.80
2019-05-18T13:00:19.225Z,40.90
2019-05-18T13:02:51.453Z,39.70
2019-05-18T13:05:23.787Z,39.70
2019-05-18T13:07:56.066Z,40.10
2019-05-18T13:10:28.608Z,40.40
2019-05-18T13:13:01.193Z,40.30
2019-05-18T13:15:34.520Z,40.70
2019-05-18T13:18:06.850Z,39.40
2019-05-18T13:20:39.226Z,39.80
2019-05-18T13:23:11.721Z,39.70
2019-05-18T13:25:44.106Z,39.30
2019-05-18T13:28:16.522Z,39.40
2019-05-18T13:30:49.077Z,40.00
2019-05-18T13:33:22.149Z,39.70
2019-05-18T13:35:54.573Z,38.70
2019-05-18T13:38:26.924Z,38.90
2019-05-18T13:40:59.298Z,38.30
2019-05-18T13:43:31.949Z,37.80
2019-05-18T13:46:04.516Z,36.60
2019-05-18T13:51:14.774Z,36.00
2019-05-18T13:53:47.322Z,36.40
2019-05-18T13:56:19.961Z,36.10
2019-05-18T13:58:53.107Z,36.00
2019-05-18T14:01:25.841Z,35.10
2019-05-18T14:03:58.578Z,35.40
2019-05-18T14:06:31.011Z,35.30
2019-05-18T14:09:04.142Z,35.00
2019-05-18T14:11:36.578Z,35.20
2019-05-18T14:14:09.035Z,35.60
2019-05-18T14:16:41.583Z,34.40
2019-05-18T14:19:14.016Z,33.80
2019-05-18T14:21:46.545Z,34.30
2019-05-18T14:24:18.877Z,34.10
2019-05-18T14:26:51.200Z,34.40
2019-05-18T14:29:23.421Z,34.00
2019-05-18T14:31:55.708Z,32.70
2019-05-18T14:34:27.929Z,33.20
2019-05-18T14:37:00.525Z,33.30
2019-05-18T14:39:32.945Z,32.80
2019-05-18T14:42:05.323Z,33.50
2019-05-18T14:44:37.641Z,32.70
2019-05-18T14:47:10.057Z,32.80
2019-05-18T14:49:42.770Z,32.70
2019-05-18T14:52:15.317Z,33.10
2019-05-18T14:54:48.484Z,33.60
2019-05-18T14:57:20.753Z,33.20
2019-05-18T14:59:53.254Z,33.50
2019-05-18T15:02:25.574Z,33.50
2019-05-18T15:04:57.971Z,33.80
2019-05-18T15:07:30.425Z,34.00
2019-05-18T15:10:03.074Z,33.20
2019-05-18T15:12:35.660Z,33.70
2019-05-18T15:15:08.580Z,33.40
2019-05-18T15:17:41.177Z,33.40
2019-05-18T15:20:13.835Z,33.50
2019-05-18T15:22:46.417Z,34.10
2019-05-18T15:25:18.931Z,33.90
2019-05-18T15:27:51.314Z,33.70
2019-05-18T15:30:23.923Z,32.80
2019-05-18T15:32:56.332Z,32.80
2019-05-18T15:35:28.813Z,33.10
2019-05-18T15:38:01.345Z,33.40
2019-05-18T15:40:34.750Z,33.70
2019-05-18T15:43:07.037Z,33.70
2019-05-18T15:45:39.437Z,33.50
2019-05-18T15:48:11.647Z,33.50
2019-05-18T15:50:43.863Z,33.50
2019-05-18T15:53:16.322Z,33.70
2019-05-18T15:55:48.577Z,34.00
2019-05-18T15:58:21.039Z,34.60
2019-05-18T16:00:53.453Z,35.10
2019-05-18T16:03:26.062Z,35.10
2019-05-18T16:05:58.428Z,35.50
2019-05-18T16:08:31.078Z,35.40
2019-05-18T16:11:04.680Z,35.60
2019-05-18T16:13:37.239Z,35.80
2019-05-18T16:16:10.910Z,35.70
2019-05-18T16:18:45.495Z,35.30
2019-05-18T16:21:19.214Z,35.60
2019-05-18T16:23:51.787Z,34.90
2019-05-18T16:26:24.502Z,35.30
2019-05-18T16:28:56.860Z,35.20
2019-05-18T16:31:29.233Z,35.20
2019-05-18T16:34:02.579Z,35.60
2019-05-18T16:36:35.189Z,35.50
2019-05-18T16:39:08.225Z,35.60
2019-05-18T16:41:40.693Z,35.60
2019-05-18T16:44:13.285Z,35.50
2019-05-18T16:46:45.790Z,35.40
2019-05-18T16:49:23.256Z,35.50
2019-05-18T16:51:56.573Z,35.80
2019-05-18T16:54:29.262Z,35.90
2019-05-18T16:57:01.917Z,36.10
2019-05-18T16:59:34.851Z,36.20
2019-05-18T17:02:07.598Z,36.10
2019-05-18T17:04:40.069Z,36.20
2019-05-18T17:07:13.150Z,36.00
2019-05-18T17:09:45.610Z,36.10
2019-05-18T17:12:18.291Z,35.90
2019-05-18T17:14:51.211Z,36.00
2019-05-18T17:17:24.216Z,35.90
2019-05-18T17:19:56.934Z,35.80
2019-05-18T17:22:29.315Z,35.80
2019-05-18T17:25:02.110Z,36.00
2019-05-18T17:27:35.202Z,36.00
2019-05-18T17:30:08.575Z,36.40
2019-05-18T17:32:41.305Z,36.30
2019-05-18T17:35:13.846Z,36.20
2019-05-18T17:37:46.081Z,36.30
2019-05-18T17:40:18.874Z,36.60
2019-05-18T17:42:51.185Z,36.50
2019-05-18T17:45:23.726Z,36.50
2019-05-18T17:47:56.252Z,36.50
2019-05-18T17:50:28.786Z,36.30
2019-05-18T17:53:01.914Z,36.50
2019-05-18T17:55:34.686Z,36.50
2019-05-18T17:58:07.150Z,36.70
2019-05-18T18:00:40.901Z,36.90
2019-05-18T18:03:13.332Z,37.40
2019-05-18T18:05:45.900Z,36.70
2019-05-18T18:08:19.017Z,36.50
2019-05-18T18:10:51.491Z,36.30
2019-05-18T18:13:24.682Z,36.40
2019-05-18T18:15:57.209Z,36.50
2019-05-18T18:18:29.688Z,36.60
2019-05-18T18:21:02.086Z,36.80
2019-05-18T18:23:34.727Z,37.00
2019-05-18T18:26:07.603Z,36.90
2019-05-18T18:28:40.287Z,36.80
2019-05-18T18:31:12.666Z,37.40
2019-05-18T18:33:45.081Z,36.80
2019-05-18T18:36:17.459Z,37.00
2019-05-18T18:38:49.946Z,37.20
2019-05-18T18:41:22.582Z,37.50
2019-05-18T18:43:55.366Z,37.80
2019-05-18T18:46:27.736Z,37.60
2019-05-18T18:49:00.339Z,37.60
2019-05-18T18:51:32.961Z,37.80
2019-05-18T18:54:05.765Z,37.90
2019-05-18T18:56:38.414Z,38.20
2019-05-18T18:59:12.092Z,38.10
2019-05-18T19:01:45.967Z,38.20
2019-05-18T19:04:18.528Z,38.30
2019-05-18T19:06:51.123Z,38.50
2019-05-18T19:09:23.777Z,38.50
2019-05-18T19:11:56.384Z,39.00
2019-05-18T19:14:28.731Z,38.90
2019-05-18T19:17:01.165Z,38.90
2019-05-18T19:19:33.587Z,38.90
2019-05-18T19:22:07.017Z,38.80
2019-05-18T19:24:39.997Z,38.80
2019-05-18T19:27:13.651Z,39.50
2019-05-18T19:29:46.770Z,39.00
2019-05-18T19:32:20.494Z,39.40
2019-05-18T19:34:53.468Z,39.40
2019-05-18T19:37:26.617Z,39.70
2019-05-18T19:40:00.566Z,39.70
2019-05-18T19:42:33.213Z,40.10
2019-05-18T19:45:06.480Z,39.70
2019-05-18T19:47:39.489Z,39.90
2019-05-18T19:50:12.633Z,40.10
2019-05-18T19:52:45.709Z,40.40
2019-05-18T19:55:18.659Z,40.40
2019-05-18T19:57:51.610Z,41.00
2019-05-18T20:00:24.310Z,40.80
2019-05-18T20:02:56.951Z,41.00
2019-05-18T20:05:29.870Z,41.00
2019-05-18T20:08:02.422Z,41.20
2019-05-18T20:10:34.780Z,41.30
2019-05-18T20:13:07.378Z,41.80
2019-05-18T20:15:41.737Z,41.90
2019-05-18T20:18:14.217Z,42.00
2019-05-18T20:20:46.757Z,42.10
2019-05-18T20:23:19.028Z,42.30
2019-05-18T20:25:51.641Z,42.60
2019-05-18T20:28:24.429Z,42.60
2019-05-18T20:31:00.598Z,42.80
2019-05-18T20:33:34.077Z,43.00
2019-05-18T20:36:06.960Z,43.20
2019-05-18T20:38:43.749Z,43.40
2019-05-18T20:41:17.507Z,43.50
2019-05-18T20:43:50.093Z,43.70
2019-05-18T20:46:22.926Z,43.70
2019-05-18T20:48:58.450Z,43.90
2019-05-18T20:51:30.951Z,44.10
2019-05-18T20:54:06.524Z,44.50
2019-05-18T20:56:39.261Z,44.60
2019-05-18T20:59:11.941Z,45.00
2019-05-18T21:01:44.735Z,44.90
2019-05-18T21:04:17.118Z,45.10
2019-05-18T21:06:49.386Z,45.40
2019-05-18T21:09:21.946Z,45.50
2019-05-18T21:11:55.765Z,45.70
2019-05-18T21:14:29.475Z,45.60
2019-05-18T21:17:05.200Z,45.90
2019-05-18T21:19:37.938Z,45.90
2019-05-18T21:22:10.163Z,46.10
2019-05-18T21:24:43.225Z,46.50
2019-05-18T21:27:16.017Z,46.50
2019-05-18T21:29:49.039Z,46.70
2019-05-18T21:32:22.033Z,46.80
2019-05-18T21:34:54.606Z,47.10
2019-05-18T21:37:28.498Z,47.30
2019-05-18T21:40:01.737Z,47.40
2019-05-18T21:42:34.493Z,47.60
2019-05-18T21:45:08.467Z,47.80
2019-05-18T21:47:40.819Z,47.90
2019-05-18T21:50:14.144Z,48.10
2019-05-18T21:52:46.881Z,48.40
2019-05-18T21:55:19.584Z,48.40
2019-05-18T21:57:51.886Z,48.40
2019-05-18T22:00:25.920Z,48.50
2019-05-18T22:03:00.310Z,48.70
2019-05-18T22:05:33.127Z,48.70
2019-05-18T22:08:05.580Z,49.40
2019-05-18T22:10:38.221Z,49.00
2019-05-18T22:13:10.555Z,49.20
2019-05-18T22:15:42.992Z,49.30
2019-05-18T22:18:24.004Z,49.40
2019-05-18T22:20:50.044Z,49.30
2019-05-18T22:23:22.367Z,49.40
2019-05-18T22:25:56.968Z,49.70
2019-05-18T22:28:29.148Z,49.70
2019-05-18T22:31:01.918Z,49.90
2019-05-18T22:33:34.900Z,50.00
2019-05-18T22:36:07.310Z,49.70
2019-05-18T22:38:39.776Z,49.90
2019-05-18T22:41:13.197Z,49.90
2019-05-18T22:43:47.153Z,50.10
2019-05-18T22:46:19.952Z,50.40
2019-05-18T22:48:52.502Z,50.40
2019-05-18T22:51:25.020Z,50.40
2019-05-18T22:53:58.246Z,50.50
2019-05-18T22:56:31.566Z,50.50
2019-05-18T22:59:04.987Z,50.80
2019-05-18T23:01:38.305Z,50.80
2019-05-18T23:04:12.617Z,51.10
2019-05-18T23:06:45.974Z,51.20
2019-05-18T23:09:18.873Z,51.10
2019-05-18T23:11:51.470Z,51.10
2019-05-18T23:14:23.945Z,51.40
2019-05-18T23:16:56.344Z,51.40
2019-05-18T23:19:28.784Z,51.50
2019-05-18T23:22:01.714Z,51.60
2019-05-18T23:24:34.209Z,51.70
2019-05-18T23:27:06.672Z,51.70
2019-05-18T23:29:39.017Z,51.80
2019-05-18T23:32:11.768Z,52.00
2019-05-18T23:34:44.367Z,52.10
2019-05-18T23:37:16.966Z,52.20
2019-05-18T23:39:49.593Z,52.30
2019-05-18T23:42:22.282Z,52.30
2019-05-18T23:44:54.682Z,52.50
2019-05-18T23:47:27.270Z,52.60
2019-05-18T23:49:59.711Z,52.70
2019-05-18T23:52:32.237Z,52.80
2019-05-18T23:55:05.213Z,53.00
2019-05-18T23:57:37.980Z,53.00
